createdAt,value
2022-08-17T00:02:25.395Z,73.95
2022-08-17T00:04:54.099Z,72.82
2022-08-17T00:07:21.299Z,73.15
2022-08-17T00:09:47.883Z,76.20
2022-08-17T00:12:43.210Z,75.78
2022-08-17T00:15:01.571Z,81.72
2022-08-17T00:17:28.295Z,80.85
2022-08-17T00:19:55.025Z,89.38
2022-08-17T00:22:32.279Z,89.00
2022-08-17T00:25:03.007Z,88.68
2022-08-17T00:27:29.520Z,88.07
2022-08-17T00:29:56.083Z,92.25
2022-08-17T00:33:10.957Z,94.50
2022-08-17T00:35:12.095Z,93.33
2022-08-17T00:37:38.905Z,89.45
2022-08-17T00:40:06.592Z,91.68
2022-08-17T00:42:33.265Z,90.72
2022-08-17T00:45:00.152Z,82.93
2022-08-17T00:47:26.734Z,88.17
2022-08-17T00:49:54.006Z,91.45
2022-08-17T00:52:27.624Z,94.97
2022-08-17T00:54:55.835Z,91.05
2022-08-17T00:57:35.169Z,89.57
2022-08-17T01:00:11.235Z,85.37
2022-08-17T01:02:43.342Z,85.85
2022-08-17T01:05:16.463Z,84.95
2022-08-17T01:07:46.820Z,90.07
2022-08-17T01:10:57.529Z,89.40
2022-08-17T01:13:02.695Z,96.30
2022-08-17T01:15:31.243Z,97.28
2022-08-17T01:17:58.095Z,87.97
2022-08-17T01:20:25.125Z,90.43
2022-08-17T01:22:52.309Z,94.97
2022-08-17T01:25:20.636Z,87.93
2022-08-17T01:27:49.517Z,90.70
2022-08-17T01:30:58.955Z,99.97
2022-08-17T01:33:04.426Z,100.07
2022-08-17T01:35:31.529Z,99.78
2022-08-17T01:37:58.133Z,108.47
2022-08-17T01:40:31.204Z,106.15
2022-08-17T01:43:03.489Z,114.68
2022-08-17T01:45:33.873Z,107.90
2022-08-17T01:48:01.269Z,114.30
2022-08-17T01:50:31.570Z,117.33
2022-08-17T01:53:26.347Z,120.68
2022-08-17T01:55:57.816Z,104.40
2022-08-17T01:58:24.808Z,111.13
2022-08-17T02:01:01.304Z,97.85
2022-08-17T02:03:29.074Z,96.57
2022-08-17T02:05:56.525Z,91.20
2022-08-17T02:08:38.873Z,82.07
2022-08-17T02:11:15.727Z,81.75
2022-08-17T02:13:44.080Z,70.53
2022-08-17T02:16:10.986Z,77.70
2022-08-17T02:18:37.645Z,68.25
2022-08-17T02:21:04.954Z,64.13
2022-08-17T02:23:35.559Z,70.82
2022-08-17T02:26:02.436Z,68.30
2022-08-17T02:28:29.299Z,79.90
2022-08-17T02:31:01.727Z,83.18
2022-08-17T02:33:41.507Z,81.78
2022-08-17T02:36:12.169Z,80.10
2022-08-17T02:38:40.238Z,90.38
2022-08-17T02:41:07.044Z,91.63
2022-08-17T02:43:33.726Z,90.22
2022-08-17T02:46:00.516Z,94.93
2022-08-17T02:48:31.063Z,91.28
2022-08-17T02:50:58.401Z,98.63
2022-08-17T02:53:25.770Z,106.60
2022-08-17T02:55:53.148Z,103.07
2022-08-17T02:58:34.732Z,118.60
2022-08-17T03:01:07.051Z,103.50
2022-08-17T03:03:34.788Z,97.57
2022-08-17T03:06:01.845Z,87.10
2022-08-17T03:08:28.584Z,86.60
2022-08-17T03:10:55.712Z,81.35
2022-08-17T03:13:22.950Z,72.00
2022-08-17T03:15:50.587Z,79.07
2022-08-17T03:18:24.575Z,75.00
2022-08-17T03:20:54.925Z,80.90
2022-08-17T03:23:24.134Z,77.00
2022-08-17T03:25:53.307Z,69.95
2022-08-17T03:28:21.111Z,64.55
2022-08-17T03:30:47.741Z,84.57
2022-08-17T03:33:14.700Z,70.03
2022-08-17T03:35:42.092Z,75.65
2022-08-17T03:38:12.796Z,71.32
2022-08-17T03:40:56.729Z,72.70
2022-08-17T03:43:25.014Z,59.43
2022-08-17T03:46:27.183Z,55.85
2022-08-17T03:49:14.574Z,58.90
2022-08-17T03:52:00.091Z,64.63
2022-08-17T03:54:45.410Z,68.22
2022-08-17T03:57:12.543Z,63.33
2022-08-17T03:59:40.563Z,65.07
2022-08-17T04:02:11.569Z,61.38
2022-08-17T04:04:39.276Z,69.53
2022-08-17T04:07:06.621Z,79.47
2022-08-17T04:09:33.532Z,76.83
2022-08-17T04:12:01.316Z,79.22
2022-08-17T04:14:39.222Z,73.97
2022-08-17T04:17:21.446Z,89.63
2022-08-17T04:19:47.990Z,87.72
2022-08-17T04:22:30.277Z,89.13
2022-08-17T04:25:09.031Z,96.07
2022-08-17T04:27:36.580Z,98.70
2022-08-17T04:30:07.058Z,95.93
2022-08-17T04:33:02.246Z,98.97
2022-08-17T04:35:36.571Z,107.27
2022-08-17T04:38:03.141Z,97.60
2022-08-17T04:40:48.056Z,90.32
2022-08-17T04:43:18.975Z,92.47
2022-08-17T04:45:56.132Z,80.53
2022-08-17T04:48:36.111Z,79.37
2022-08-17T04:51:09.931Z,78.28
2022-08-17T04:53:38.091Z,82.15
2022-08-17T04:56:04.948Z,85.32
2022-08-17T04:58:31.785Z,83.03
2022-08-17T05:00:58.454Z,78.93
2022-08-17T05:03:25.036Z,85.32
2022-08-17T05:05:51.590Z,79.68
2022-08-17T05:08:20.157Z,87.22
2022-08-17T05:10:48.313Z,86.20
2022-08-17T05:13:17.720Z,87.33
2022-08-17T05:15:47.880Z,90.57
2022-08-17T05:18:15.577Z,78.20
2022-08-17T05:20:42.226Z,76.68
2022-08-17T05:23:12.453Z,82.00
2022-08-17T05:25:48.625Z,82.63
2022-08-17T05:28:18.701Z,88.05
2022-08-17T05:30:50.143Z,79.40
2022-08-17T05:33:20.207Z,86.43
2022-08-17T05:35:49.360Z,95.32
2022-08-17T05:38:18.241Z,92.30
2022-08-17T05:40:45.241Z,104.32
2022-08-17T05:43:11.722Z,98.03
2022-08-17T05:45:55.667Z,88.20
2022-08-17T05:48:35.429Z,86.18
2022-08-17T05:51:21.181Z,89.73
2022-08-17T05:54:12.681Z,87.50
2022-08-17T05:56:56.186Z,77.30
2022-08-17T05:59:34.765Z,76.82
2022-08-17T06:02:19.905Z,75.35
2022-08-17T06:04:46.367Z,81.77
2022-08-17T06:07:34.937Z,76.68
2022-08-17T06:10:29.028Z,80.80
2022-08-17T06:13:26.167Z,76.20
2022-08-17T06:16:33.071Z,79.80
2022-08-17T06:19:06.283Z,66.10
2022-08-17T06:21:39.443Z,66.63
2022-08-17T06:24:34.318Z,65.05
2022-08-17T06:27:36.143Z,70.75
2022-08-17T06:30:09.200Z,72.60
2022-08-17T06:32:48.150Z,70.53
2022-08-17T06:35:19.257Z,69.30
2022-08-17T06:37:55.052Z,63.38
2022-08-17T06:40:45.582Z,66.68
2022-08-17T06:43:29.353Z,65.95
2022-08-17T06:46:11.440Z,65.27
2022-08-17T06:48:47.202Z,57.15
2022-08-17T06:51:33.417Z,56.55
2022-08-17T06:54:09.025Z,53.03
2022-08-17T06:56:53.060Z,43.97
2022-08-17T06:59:36.293Z,40.97
2022-08-17T07:02:29.132Z,36.17
2022-08-17T07:05:13.573Z,31.50
2022-08-17T07:08:04.962Z,36.15
2022-08-17T07:10:36.733Z,43.85
2022-08-17T07:13:20.318Z,36.90
2022-08-17T07:15:56.397Z,30.75
2022-08-17T07:18:26.081Z,33.20
2022-08-17T07:21:02.145Z,30.15
2022-08-17T07:23:44.594Z,27.05
2022-08-17T07:26:13.290Z,28.87
2022-08-17T07:28:39.921Z,31.63
2022-08-17T07:31:07.279Z,25.90
2022-08-17T07:33:36.854Z,30.33
2022-08-17T07:36:03.809Z,28.63
2022-08-17T07:38:32.828Z,31.97
2022-08-17T07:41:05.091Z,34.92
2022-08-17T07:43:39.810Z,33.83
2022-08-17T07:46:33.365Z,35.17
2022-08-17T07:49:08.893Z,33.85
2022-08-17T07:51:45.603Z,34.57
2022-08-17T07:54:15.300Z,39.75
2022-08-17T07:56:56.188Z,35.90
2022-08-17T07:59:24.186Z,39.90
2022-08-17T08:01:57.987Z,40.13
2022-08-17T08:07:21.689Z,87.47
2022-08-17T08:10:11.281Z,90.07
2022-08-17T08:12:42.180Z,56.15
2022-08-17T08:15:21.834Z,45.58
2022-08-17T08:17:56.332Z,89.07
2022-08-17T08:20:53.872Z,51.40
2022-08-17T08:23:26.566Z,35.10
2022-08-17T08:26:30.991Z,38.17
2022-08-17T08:29:12.591Z,34.08
2022-08-17T08:32:07.640Z,47.73
2022-08-17T08:34:58.883Z,56.30
2022-08-17T08:37:43.682Z,85.25
2022-08-17T08:40:33.749Z,65.82
2022-08-17T08:43:22.105Z,40.03
2022-08-17T08:45:57.845Z,39.33
2022-08-17T08:48:56.878Z,43.72
2022-08-17T08:51:34.568Z,70.75
2022-08-17T08:54:31.432Z,46.65
2022-08-17T08:57:23.310Z,55.65
2022-08-17T08:59:58.161Z,36.70
2022-08-17T09:02:40.286Z,41.38
2022-08-17T09:05:39.306Z,44.13
2022-08-17T09:08:46.065Z,41.25
2022-08-17T09:11:12.566Z,37.65
2022-08-17T09:14:29.367Z,38.17
2022-08-17T09:17:21.005Z,38.88
2022-08-17T09:20:27.436Z,38.63
2022-08-17T09:23:04.007Z,38.30
2022-08-17T09:25:34.970Z,40.60
2022-08-17T09:28:17.082Z,45.13
2022-08-17T09:31:02.522Z,43.55
2022-08-17T09:33:31.728Z,42.10
2022-08-17T09:36:11.753Z,45.88
2022-08-17T09:38:44.030Z,45.88
2022-08-17T09:41:33.430Z,47.63
2022-08-17T09:44:22.767Z,42.00
2022-08-17T09:47:00.186Z,44.63
2022-08-17T09:49:40.703Z,52.40
2022-08-17T09:52:13.725Z,42.33
2022-08-17T09:54:41.396Z,43.60
2022-08-17T09:57:30.191Z,43.72
2022-08-17T10:00:13.828Z,41.88
2022-08-17T10:02:53.155Z,42.45
2022-08-17T10:05:41.400Z,42.72
2022-08-17T10:08:17.040Z,40.37
2022-08-17T10:11:07.241Z,48.55
2022-08-17T10:13:59.478Z,46.97
2022-08-17T10:16:55.890Z,44.08
2022-08-17T10:19:28.346Z,48.38
2022-08-17T10:22:35.244Z,49.90
2022-08-17T10:25:27.852Z,43.90
2022-08-17T10:28:19.652Z,45.05
2022-08-17T10:31:10.407Z,42.60
2022-08-17T10:34:09.575Z,39.38
2022-08-17T10:36:48.977Z,36.03
2022-08-17T10:39:30.785Z,38.03
2022-08-17T10:42:03.174Z,37.25
2022-08-17T10:44:48.471Z,40.88
2022-08-17T10:47:18.642Z,39.40
2022-08-17T10:49:49.699Z,42.87
2022-08-17T10:52:28.350Z,41.50
2022-08-17T10:54:58.589Z,42.70
2022-08-17T10:57:31.813Z,41.20
2022-08-17T11:00:00.316Z,38.00
2022-08-17T11:02:50.002Z,29.30
2022-08-17T11:05:28.663Z,31.27
2022-08-17T11:08:23.909Z,33.97
2022-08-17T11:11:12.401Z,28.92
2022-08-17T11:14:08.607Z,28.27
2022-08-17T11:16:51.208Z,24.60
2022-08-17T11:19:41.212Z,27.95
2022-08-17T11:22:16.488Z,26.25
2022-08-17T11:24:47.777Z,26.10
2022-08-17T11:27:27.616Z,23.80
2022-08-17T11:30:01.757Z,22.00
2022-08-17T11:32:54.804Z,24.13
2022-08-17T11:35:21.772Z,21.15
2022-08-17T11:38:30.503Z,22.50
2022-08-17T11:41:15.685Z,23.60
2022-08-17T11:44:11.550Z,20.73
2022-08-17T11:47:15.323Z,17.70
2022-08-17T11:50:29.107Z,19.20
2022-08-17T11:52:55.815Z,19.02
2022-08-17T11:55:41.768Z,16.92
2022-08-17T11:58:39.584Z,19.23
2022-08-17T12:01:07.905Z,16.80
2022-08-17T12:03:34.665Z,18.35
2022-08-17T12:06:19.629Z,18.60
2022-08-17T12:08:56.548Z,18.13
2022-08-17T12:11:57.775Z,20.87
2022-08-17T12:15:08.488Z,21.67
2022-08-17T12:17:39.347Z,24.42
2022-08-17T12:20:34.009Z,21.88
2022-08-17T12:23:06.259Z,24.38
2022-08-17T12:26:05.357Z,27.80
2022-08-17T12:28:36.429Z,26.23
2022-08-17T12:31:06.996Z,28.02
2022-08-17T12:33:36.866Z,23.35
2022-08-17T12:36:07.527Z,23.63
2022-08-17T12:38:37.514Z,27.00
2022-08-17T12:41:26.318Z,26.25
2022-08-17T12:44:02.309Z,25.05
2022-08-17T12:46:44.756Z,26.00
2022-08-17T12:49:35.878Z,24.05
2022-08-17T12:52:05.701Z,23.50
2022-08-17T12:54:44.087Z,24.05
2022-08-17T12:57:34.976Z,22.10
2022-08-17T13:00:32.410Z,25.30
2022-08-17T13:03:02.172Z,23.80
2022-08-17T13:05:36.312Z,21.60
2022-08-17T13:08:23.523Z,22.73
2022-08-17T13:11:01.797Z,27.60
2022-08-17T13:13:34.754Z,27.40
2022-08-17T13:16:05.398Z,22.80
2022-08-17T13:18:36.521Z,23.53
2022-08-17T13:21:03.313Z,22.90
2022-08-17T13:23:32.316Z,22.75
2022-08-17T13:26:05.378Z,23.80
2022-08-17T13:28:36.015Z,22.25
2022-08-17T13:31:28.068Z,23.27
2022-08-17T13:34:13.385Z,23.67
2022-08-17T13:36:43.714Z,23.15
2022-08-17T13:39:21.672Z,24.58
2022-08-17T13:41:53.853Z,27.00
2022-08-17T13:44:30.887Z,26.13
2022-08-17T13:46:59.824Z,27.05
2022-08-17T13:49:40.983Z,25.85
2022-08-17T13:52:37.988Z,29.10
2022-08-17T13:55:15.745Z,29.20
2022-08-17T13:57:47.003Z,32.17
2022-08-17T14:00:30.852Z,29.33
2022-08-17T14:02:58.527Z,28.40
2022-08-17T14:05:25.778Z,31.60
2022-08-17T14:07:58.719Z,27.63
2022-08-17T14:10:26.369Z,27.50
2022-08-17T14:12:53.460Z,28.08
2022-08-17T14:15:55.024Z,34.33
2022-08-17T14:18:12.212Z,30.17
2022-08-17T14:20:39.893Z,29.30
2022-08-17T14:23:08.396Z,32.57
2022-08-17T14:25:35.060Z,33.63
2022-08-17T14:28:01.940Z,31.92
2022-08-17T14:30:49.997Z,32.85
2022-08-17T14:33:25.546Z,30.58
2022-08-17T14:36:16.421Z,30.30
2022-08-17T14:38:43.033Z,31.25
2022-08-17T14:41:09.595Z,31.80
2022-08-17T14:43:36.460Z,31.67
2022-08-17T14:46:03.129Z,34.40
2022-08-17T14:48:29.717Z,44.20
2022-08-17T14:50:56.737Z,35.00
2022-08-17T14:53:23.427Z,37.15
2022-08-17T14:55:51.804Z,37.80
2022-08-17T14:58:19.940Z,41.90
2022-08-17T15:00:46.846Z,39.43
2022-08-17T15:03:14.564Z,38.70
2022-08-17T15:05:44.274Z,39.30
2022-08-17T15:08:11.220Z,33.97
2022-08-17T15:10:39.168Z,35.13
2022-08-17T15:13:17.070Z,31.87
2022-08-17T15:15:43.800Z,29.67
2022-08-17T15:18:10.346Z,26.92
2022-08-17T15:20:36.881Z,26.90
2022-08-17T15:23:03.444Z,33.05
2022-08-17T15:25:32.463Z,27.33
2022-08-17T15:28:00.556Z,28.48
2022-08-17T15:30:28.434Z,29.60
2022-08-17T15:32:57.768Z,33.80
2022-08-17T15:35:27.369Z,32.67
2022-08-17T15:37:55.983Z,28.83
2022-08-17T15:40:22.497Z,34.17
2022-08-17T15:42:49.042Z,31.10
2022-08-17T15:45:16.907Z,31.90
2022-08-17T15:47:43.611Z,33.30
2022-08-17T15:50:10.665Z,33.80
2022-08-17T15:52:40.240Z,34.80
2022-08-17T15:55:10.720Z,35.03
2022-08-17T15:57:37.316Z,33.75
2022-08-17T16:00:05.827Z,31.63
2022-08-17T16:03:45.668Z,31.97
2022-08-17T16:05:24.786Z,34.42
2022-08-17T16:07:52.417Z,31.23
2022-08-17T16:10:19.630Z,34.90
2022-08-17T16:12:47.949Z,35.25
2022-08-17T16:15:16.236Z,32.63
2022-08-17T16:17:43.073Z,32.05
2022-08-17T16:20:19.771Z,37.88
2022-08-17T16:22:48.912Z,35.58
2022-08-17T16:25:19.521Z,36.38
2022-08-17T16:27:48.275Z,32.63
2022-08-17T16:30:17.671Z,35.20
2022-08-17T16:32:45.384Z,35.97
2022-08-17T16:35:16.184Z,36.70
2022-08-17T16:37:45.435Z,33.60
2022-08-17T16:40:13.209Z,35.30
2022-08-17T16:42:40.210Z,34.55
2022-08-17T16:45:14.607Z,31.95
2022-08-17T16:47:41.981Z,33.67
2022-08-17T16:50:11.750Z,37.40
2022-08-17T16:52:40.535Z,35.23
2022-08-17T16:55:09.267Z,36.28
2022-08-17T16:57:47.412Z,32.95
2022-08-17T17:00:18.240Z,35.15
2022-08-17T17:02:47.671Z,32.58
2022-08-17T17:05:29.256Z,30.00
2022-08-17T17:08:18.347Z,33.85
2022-08-17T17:10:47.360Z,31.77
2022-08-17T17:13:38.953Z,31.65
2022-08-17T17:16:20.848Z,34.97
2022-08-17T17:19:15.011Z,38.40
2022-08-17T17:21:59.990Z,34.90
2022-08-17T17:24:41.039Z,34.60
2022-08-17T17:27:17.408Z,30.10
2022-08-17T17:30:08.180Z,34.53
2022-08-17T17:32:44.638Z,35.17
2022-08-17T17:35:18.899Z,34.40
2022-08-17T17:37:46.877Z,38.83
2022-08-17T17:40:28.716Z,35.85
2022-08-17T17:43:09.455Z,42.05
2022-08-17T17:45:53.035Z,38.30
2022-08-17T17:48:19.681Z,37.20
2022-08-17T17:51:05.537Z,40.28
2022-08-17T17:53:48.385Z,41.47
2022-08-17T17:56:45.057Z,40.53
2022-08-17T17:59:27.090Z,40.07
2022-08-17T18:02:08.804Z,36.97
2022-08-17T18:04:59.088Z,40.38
2022-08-17T18:07:42.412Z,36.17
2022-08-17T18:10:29.541Z,38.38
2022-08-17T18:13:15.667Z,39.43
2022-08-17T18:15:51.361Z,37.72
2022-08-17T18:18:17.957Z,41.45
2022-08-17T18:20:55.812Z,40.38
2022-08-17T18:23:27.627Z,41.70
2022-08-17T18:25:56.235Z,46.30
2022-08-17T18:28:44.037Z,40.47
2022-08-17T18:31:20.987Z,42.35
2022-08-17T18:33:50.772Z,36.60
2022-08-17T18:36:30.267Z,39.35
2022-08-17T18:39:21.243Z,35.93
2022-08-17T18:41:53.558Z,35.50
2022-08-17T18:44:32.784Z,31.50
2022-08-17T18:47:19.499Z,34.85
2022-08-17T18:49:51.881Z,38.13
2022-08-17T18:52:34.150Z,35.13
2022-08-17T18:55:08.880Z,42.42
2022-08-17T18:57:39.444Z,38.70
2022-08-17T19:00:35.901Z,40.90
2022-08-17T19:03:18.580Z,37.40
2022-08-17T19:05:50.578Z,39.03
2022-08-17T19:08:29.174Z,38.08
2022-08-17T19:11:05.601Z,39.88
2022-08-17T19:13:38.682Z,46.38
2022-08-17T19:16:14.856Z,46.13
2022-08-17T19:18:58.699Z,49.55
2022-08-17T19:21:30.852Z,48.72
2022-08-17T19:24:13.796Z,51.50
2022-08-17T19:26:51.067Z,55.78
2022-08-17T19:29:48.041Z,47.10
2022-08-17T19:32:19.507Z,48.95
2022-08-17T19:34:46.280Z,47.88
2022-08-17T19:37:39.402Z,61.00
2022-08-17T19:40:51.216Z,57.15
2022-08-17T19:43:28.730Z,53.23
2022-08-17T19:46:11.522Z,56.17
2022-08-17T19:49:12.242Z,56.33
2022-08-17T19:51:48.827Z,56.28
2022-08-17T19:54:20.520Z,67.75
2022-08-17T19:57:16.020Z,59.03
2022-08-17T19:59:49.344Z,58.13
2022-08-17T20:02:35.702Z,50.80
2022-08-17T20:05:08.577Z,58.08
2022-08-17T20:07:53.384Z,54.50
2022-08-17T20:10:53.611Z,63.27
2022-08-17T20:13:33.271Z,81.30
2022-08-17T20:16:01.192Z,89.50
2022-08-17T20:18:37.686Z,91.38
2022-08-17T20:21:20.290Z,97.95
2022-08-17T20:23:59.537Z,103.93
2022-08-17T20:26:49.114Z,117.25
2022-08-17T20:29:36.991Z,102.22
2022-08-17T20:32:16.890Z,98.55
2022-08-17T20:34:47.201Z,95.28
2022-08-17T20:37:13.647Z,98.57
2022-08-17T20:40:05.393Z,96.15
2022-08-17T20:42:33.875Z,94.50
2022-08-17T20:45:21.840Z,82.05
2022-08-17T20:48:18.668Z,80.50
2022-08-17T20:50:45.232Z,78.43
2022-08-17T20:53:32.389Z,107.03
2022-08-17T20:55:58.963Z,127.25
2022-08-17T20:58:30.931Z,126.40
2022-08-17T21:00:57.935Z,130.32
2022-08-17T21:03:24.512Z,114.83
2022-08-17T21:06:16.905Z,153.80
2022-08-17T21:09:28.572Z,139.45
2022-08-17T21:12:04.980Z,144.38
2022-08-17T21:14:40.869Z,118.88
2022-08-17T21:17:31.118Z,114.82
2022-08-17T21:20:14.794Z,103.27
2022-08-17T21:23:16.518Z,120.72
2022-08-17T21:26:09.228Z,142.25
2022-08-17T21:29:29.893Z,147.50
2022-08-17T21:31:59.453Z,163.52
2022-08-17T21:34:44.970Z,156.20
2022-08-17T21:37:23.661Z,139.50
2022-08-17T21:40:24.490Z,148.35
2022-08-17T21:42:59.289Z,154.98
2022-08-17T21:45:30.880Z,169.13
2022-08-17T21:48:15.086Z,174.33
2022-08-17T21:50:45.782Z,162.07
2022-08-17T21:53:22.836Z,144.50
2022-08-17T21:55:50.337Z,143.88
2022-08-17T21:58:35.163Z,131.10
2022-08-17T22:01:21.051Z,161.37
2022-08-17T22:03:56.420Z,166.23
2022-08-17T22:06:25.014Z,176.00
2022-08-17T22:09:05.925Z,180.52
2022-08-17T22:11:57.549Z,182.35
2022-08-17T22:15:00.857Z,182.00
2022-08-17T22:17:27.345Z,177.65
2022-08-17T22:19:58.955Z,170.88
2022-08-17T22:22:27.896Z,146.70
2022-08-17T22:24:57.776Z,151.80
2022-08-17T22:27:45.864Z,155.97
2022-08-17T22:30:27.539Z,152.77
2022-08-17T22:32:54.230Z,139.68
2022-08-17T22:35:37.392Z,131.77
2022-08-17T22:38:19.347Z,132.77
2022-08-17T22:40:55.088Z,132.33
2022-08-17T22:43:26.385Z,129.93
2022-08-17T22:45:57.280Z,179.95
2022-08-17T22:48:28.926Z,202.57
2022-08-17T22:51:14.222Z,123.55
2022-08-17T22:54:08.700Z,119.17
2022-08-17T22:56:54.815Z,88.70
2022-08-17T22:59:44.294Z,96.60
2022-08-17T23:02:19.615Z,77.88
2022-08-17T23:05:07.236Z,92.75
2022-08-17T23:07:33.739Z,118.70
2022-08-17T23:10:02.168Z,124.47
2022-08-17T23:12:29.221Z,128.48
2022-08-17T23:15:01.237Z,102.93
2022-08-17T23:17:35.131Z,96.13
2022-08-17T23:20:09.104Z,94.13
2022-08-17T23:22:38.164Z,88.65
2022-08-17T23:25:29.422Z,97.72
2022-08-17T23:27:58.374Z,104.55
2022-08-17T23:30:25.685Z,109.13
2022-08-17T23:32:54.189Z,131.07
2022-08-17T23:35:40.279Z,150.63
2022-08-17T23:38:11.694Z,156.57
2022-08-17T23:40:39.832Z,153.75
2022-08-17T23:43:23.720Z,146.48
2022-08-17T23:45:57.544Z,132.30
2022-08-17T23:48:32.483Z,131.85
2022-08-17T23:51:14.862Z,147.25
2022-08-17T23:53:46.309Z,128.07
2022-08-17T23:56:12.944Z,129.52
2022-08-17T23:58:42.418Z,138.07
